sensor_id;sensor_type;location;lat;lon;timestamp;P1;durP1;ratioP1;P2;durP2;ratioP2
20283;SDS011;10301;50.832;4.080;2023-02-28T00:00:34;12.33;;;5.73;;
20283;SDS011;10301;50.832;4.080;2023-02-28T00:03:00;9.43;;;5.60;;
20283;SDS011;10301;50.832;4.080;2023-02-28T00:05:27;12.03;;;5.73;;
20283;SDS011;10301;50.832;4.080;2023-02-28T00:07:53;9.60;;;5.80;;
20283;SDS011;10301;50.832;4.080;2023-02-28T00:10:21;13.63;;;6.53;;
20283;SDS011;10301;50.832;4.080;2023-02-28T00:12:49;12.03;;;5.87;;
20283;SDS011;10301;50.832;4.080;2023-02-28T00:15:16;12.17;;;6.50;;
20283;SDS011;10301;50.832;4.080;2023-02-28T00:17:42;10.13;;;6.00;;
20283;SDS011;10301;50.832;4.080;2023-02-28T00:20:08;9.80;;;5.87;;
20283;SDS011;10301;50.832;4.080;2023-02-28T00:22:41;12.30;;;6.20;;
20283;SDS011;10301;50.832;4.080;2023-02-28T00:25:08;12.00;;;6.47;;
20283;SDS011;10301;50.832;4.080;2023-02-28T00:27:35;11.40;;;7.47;;
20283;SDS011;10301;50.832;4.080;2023-02-28T00:30:01;13.40;;;7.40;;
20283;SDS011;10301;50.832;4.080;2023-02-28T00:32:27;12.20;;;6.43;;
20283;SDS011;10301;50.832;4.080;2023-02-28T00:34:53;13.40;;;6.93;;
20283;SDS011;10301;50.832;4.080;2023-02-28T00:37:19;10.40;;;6.20;;
20283;SDS011;10301;50.832;4.080;2023-02-28T00:39:44;13.50;;;6.10;;
20283;SDS011;10301;50.832;4.080;2023-02-28T00:42:10;12.70;;;6.13;;
20283;SDS011;10301;50.832;4.080;2023-02-28T00:44:36;11.97;;;6.73;;
20283;SDS011;10301;50.832;4.080;2023-02-28T00:47:01;10.63;;;6.60;;
20283;SDS011;10301;50.832;4.080;2023-02-28T00:49:27;11.30;;;6.13;;
20283;SDS011;10301;50.832;4.080;2023-02-28T00:51:53;10.87;;;7.07;;
20283;SDS011;10301;50.832;4.080;2023-02-28T00:54:20;12.63;;;6.70;;
20283;SDS011;10301;50.832;4.080;2023-02-28T00:56:47;11.23;;;6.73;;
20283;SDS011;10301;50.832;4.080;2023-02-28T00:59:13;9.37;;;6.00;;
20283;SDS011;10301;50.832;4.080;2023-02-28T01:01:40;13.30;;;7.77;;
20283;SDS011;10301;50.832;4.080;2023-02-28T01:04:06;21.33;;;9.67;;
20283;SDS011;10301;50.832;4.080;2023-02-28T01:06:31;31.40;;;12.00;;
20283;SDS011;10301;50.832;4.080;2023-02-28T01:08:57;32.63;;;12.30;;
20283;SDS011;10301;50.832;4.080;2023-02-28T01:11:23;29.83;;;12.10;;
20283;SDS011;10301;50.832;4.080;2023-02-28T01:13:49;24.50;;;11.73;;
20283;SDS011;10301;50.832;4.080;2023-02-28T01:16:15;18.47;;;9.80;;
20283;SDS011;10301;50.832;4.080;2023-02-28T01:18:41;19.77;;;9.63;;
20283;SDS011;10301;50.832;4.080;2023-02-28T01:21:08;21.77;;;10.87;;
20283;SDS011;10301;50.832;4.080;2023-02-28T01:23:36;20.90;;;9.77;;
20283;SDS011;10301;50.832;4.080;2023-02-28T01:26:08;19.20;;;8.87;;
20283;SDS011;10301;50.832;4.080;2023-02-28T01:28:38;14.90;;;8.27;;
20283;SDS011;10301;50.832;4.080;2023-02-28T01:31:04;13.90;;;7.87;;
20283;SDS011;10301;50.832;4.080;2023-02-28T01:33:30;15.20;;;8.43;;
20283;SDS011;10301;50.832;4.080;2023-02-28T01:36:29;16.97;;;7.47;;
20283;SDS011;10301;50.832;4.080;2023-02-28T01:38:49;12.80;;;7.00;;
20283;SDS011;10301;50.832;4.080;2023-02-28T01:41:20;14.30;;;7.53;;
20283;SDS011;10301;50.832;4.080;2023-02-28T01:46:12;12.87;;;7.40;;
20283;SDS011;10301;50.832;4.080;2023-02-28T01:48:40;10.53;;;6.90;;
20283;SDS011;10301;50.832;4.080;2023-02-28T01:51:12;16.33;;;7.60;;
20283;SDS011;10301;50.832;4.080;2023-02-28T01:53:55;18.87;;;8.90;;
20283;SDS011;10301;50.832;4.080;2023-02-28T01:56:27;16.30;;;8.77;;
20283;SDS011;10301;50.832;4.080;2023-02-28T01:58:57;13.50;;;8.40;;
20283;SDS011;10301;50.832;4.080;2023-02-28T02:01:24;14.03;;;8.43;;
20283;SDS011;10301;50.832;4.080;2023-02-28T02:03:56;13.83;;;8.40;;
20283;SDS011;10301;50.832;4.080;2023-02-28T02:06:44;12.63;;;7.23;;
20283;SDS011;10301;50.832;4.080;2023-02-28T02:09:12;13.17;;;7.40;;
20283;SDS011;10301;50.832;4.080;2023-02-28T02:11:39;11.87;;;6.67;;
20283;SDS011;10301;50.832;4.080;2023-02-28T02:33:36;13.73;;;6.83;;
20283;SDS011;10301;50.832;4.080;2023-02-28T02:38:58;14.77;;;7.83;;
20283;SDS011;10301;50.832;4.080;2023-02-28T02:41:52;12.10;;;7.50;;
20283;SDS011;10301;50.832;4.080;2023-02-28T02:44:24;15.57;;;6.97;;
20283;SDS011;10301;50.832;4.080;2023-02-28T02:46:55;13.27;;;7.70;;
20283;SDS011;10301;50.832;4.080;2023-02-28T02:49:28;14.03;;;7.93;;
20283;SDS011;10301;50.832;4.080;2023-02-28T02:51:57;12.87;;;7.37;;
20283;SDS011;10301;50.832;4.080;2023-02-28T02:54:29;11.50;;;7.20;;
20283;SDS011;10301;50.832;4.080;2023-02-28T02:56:59;14.67;;;7.90;;
20283;SDS011;10301;50.832;4.080;2023-02-28T02:59:30;11.63;;;7.60;;
20283;SDS011;10301;50.832;4.080;2023-02-28T03:01:58;12.67;;;7.50;;
20283;SDS011;10301;50.832;4.080;2023-02-28T03:04:27;12.33;;;7.90;;
20283;SDS011;10301;50.832;4.080;2023-02-28T03:06:58;15.97;;;7.73;;
20283;SDS011;10301;50.832;4.080;2023-02-28T03:09:24;16.10;;;8.37;;
20283;SDS011;10301;50.832;4.080;2023-02-28T03:11:51;14.93;;;7.97;;
20283;SDS011;10301;50.832;4.080;2023-02-28T03:14:38;13.77;;;8.77;;
20283;SDS011;10301;50.832;4.080;2023-02-28T03:20:01;12.80;;;8.13;;
20283;SDS011;10301;50.832;4.080;2023-02-28T03:33:42;16.97;;;8.30;;
20283;SDS011;10301;50.832;4.080;2023-02-28T03:36:19;17.03;;;8.80;;
20283;SDS011;10301;50.832;4.080;2023-02-28T03:38:53;17.07;;;8.00;;
20283;SDS011;10301;50.832;4.080;2023-02-28T03:41:38;14.27;;;8.27;;
20283;SDS011;10301;50.832;4.080;2023-02-28T03:44:13;17.23;;;9.23;;
20283;SDS011;10301;50.832;4.080;2023-02-28T03:46:53;15.13;;;8.53;;
20283;SDS011;10301;50.832;4.080;2023-02-28T03:49:26;15.17;;;8.93;;
20283;SDS011;10301;50.832;4.080;2023-02-28T03:51:57;12.87;;;8.47;;
20283;SDS011;10301;50.832;4.080;2023-02-28T03:54:27;14.50;;;8.70;;
20283;SDS011;10301;50.832;4.080;2023-02-28T04:00:05;18.10;;;9.30;;
20283;SDS011;10301;50.832;4.080;2023-02-28T04:02:35;18.73;;;9.20;;
20283;SDS011;10301;50.832;4.080;2023-02-28T04:05:01;14.77;;;9.30;;
20283;SDS011;10301;50.832;4.080;2023-02-28T04:07:30;19.10;;;9.73;;
20283;SDS011;10301;50.832;4.080;2023-02-28T04:09:56;16.47;;;9.10;;
20283;SDS011;10301;50.832;4.080;2023-02-28T04:12:22;21.77;;;9.30;;
20283;SDS011;10301;50.832;4.080;2023-02-28T04:14:48;15.60;;;9.13;;
20283;SDS011;10301;50.832;4.080;2023-02-28T04:17:14;18.30;;;9.67;;
20283;SDS011;10301;50.832;4.080;2023-02-28T04:19:41;16.23;;;9.73;;
20283;SDS011;10301;50.832;4.080;2023-02-28T04:22:07;18.70;;;9.60;;
20283;SDS011;10301;50.832;4.080;2023-02-28T04:24:34;16.87;;;9.63;;
20283;SDS011;10301;50.832;4.080;2023-02-28T04:26:59;16.53;;;9.40;;
20283;SDS011;10301;50.832;4.080;2023-02-28T04:29:26;17.37;;;9.70;;
20283;SDS011;10301;50.832;4.080;2023-02-28T04:31:59;18.00;;;9.77;;
20283;SDS011;10301;50.832;4.080;2023-02-28T04:34:26;15.00;;;9.60;;
20283;SDS011;10301;50.832;4.080;2023-02-28T04:36:53;17.83;;;10.00;;
20283;SDS011;10301;50.832;4.080;2023-02-28T04:39:20;15.77;;;9.23;;
20283;SDS011;10301;50.832;4.080;2023-02-28T04:41:46;16.77;;;9.57;;
20283;SDS011;10301;50.832;4.080;2023-02-28T04:44:12;16.27;;;9.83;;
20283;SDS011;10301;50.832;4.080;2023-02-28T04:46:39;19.90;;;10.07;;
20283;SDS011;10301;50.832;4.080;2023-02-28T04:49:05;16.43;;;9.73;;
20283;SDS011;10301;50.832;4.080;2023-02-28T04:51:30;16.73;;;9.17;;
20283;SDS011;10301;50.832;4.080;2023-02-28T04:53:56;14.93;;;9.70;;
20283;SDS011;10301;50.832;4.080;2023-02-28T04:56:22;15.67;;;9.70;;
20283;SDS011;10301;50.832;4.080;2023-02-28T04:58:47;15.77;;;10.00;;
20283;SDS011;10301;50.832;4.080;2023-02-28T05:01:18;21.83;;;10.60;;
20283;SDS011;10301;50.832;4.080;2023-02-28T05:03:57;15.83;;;10.17;;
20283;SDS011;10301;50.832;4.080;2023-02-28T05:06:25;15.53;;;9.93;;
20283;SDS011;10301;50.832;4.080;2023-02-28T05:08:52;19.60;;;10.33;;
20283;SDS011;10301;50.832;4.080;2023-02-28T05:13:48;16.47;;;9.70;;
20283;SDS011;10301;50.832;4.080;2023-02-28T05:16:15;22.00;;;11.00;;
20283;SDS011;10301;50.832;4.080;2023-02-28T05:18:41;16.67;;;10.30;;
20283;SDS011;10301;50.832;4.080;2023-02-28T05:21:15;19.27;;;10.37;;
20283;SDS011;10301;50.832;4.080;2023-02-28T05:23:54;18.23;;;9.67;;
20283;SDS011;10301;50.832;4.080;2023-02-28T05:26:21;16.53;;;9.83;;
20283;SDS011;10301;50.832;4.080;2023-02-28T05:28:47;17.53;;;10.07;;
20283;SDS011;10301;50.832;4.080;2023-02-28T05:31:13;17.60;;;10.80;;
20283;SDS011;10301;50.832;4.080;2023-02-28T05:33:39;21.07;;;11.63;;
20283;SDS011;10301;50.832;4.080;2023-02-28T05:36:05;18.03;;;10.23;;
20283;SDS011;10301;50.832;4.080;2023-02-28T05:38:31;15.70;;;9.87;;
20283;SDS011;10301;50.832;4.080;2023-02-28T05:40:57;17.40;;;10.03;;
20283;SDS011;10301;50.832;4.080;2023-02-28T05:43:23;17.87;;;9.87;;
20283;SDS011;10301;50.832;4.080;2023-02-28T05:45:48;17.60;;;10.67;;
20283;SDS011;10301;50.832;4.080;2023-02-28T05:48:14;19.07;;;11.37;;
20283;SDS011;10301;50.832;4.080;2023-02-28T05:50:40;17.77;;;10.43;;
20283;SDS011;10301;50.832;4.080;2023-02-28T05:53:07;20.70;;;10.93;;
20283;SDS011;10301;50.832;4.080;2023-02-28T05:55:33;19.23;;;11.63;;
20283;SDS011;10301;50.832;4.080;2023-02-28T05:58:00;19.40;;;11.20;;
20283;SDS011;10301;50.832;4.080;2023-02-28T06:00:26;17.70;;;10.83;;
20283;SDS011;10301;50.832;4.080;2023-02-28T06:02:52;17.50;;;11.00;;
20283;SDS011;10301;50.832;4.080;2023-02-28T06:05:21;18.20;;;11.53;;
20283;SDS011;10301;50.832;4.080;2023-02-28T06:07:47;21.07;;;12.00;;
20283;SDS011;10301;50.832;4.080;2023-02-28T06:10:13;18.23;;;12.13;;
20283;SDS011;10301;50.832;4.080;2023-02-28T06:12:39;19.33;;;12.70;;
20283;SDS011;10301;50.832;4.080;2023-02-28T06:15:07;19.27;;;11.30;;
20283;SDS011;10301;50.832;4.080;2023-02-28T06:17:36;17.90;;;11.10;;
20283;SDS011;10301;50.832;4.080;2023-02-28T06:20:02;19.73;;;11.10;;
20283;SDS011;10301;50.832;4.080;2023-02-28T06:22:28;17.13;;;10.37;;
20283;SDS011;10301;50.832;4.080;2023-02-28T06:24:54;16.37;;;10.20;;
20283;SDS011;10301;50.832;4.080;2023-02-28T06:27:20;18.50;;;10.60;;
20283;SDS011;10301;50.832;4.080;2023-02-28T06:29:47;15.37;;;10.27;;
20283;SDS011;10301;50.832;4.080;2023-02-28T06:32:12;16.90;;;10.37;;
20283;SDS011;10301;50.832;4.080;2023-02-28T06:34:38;17.23;;;9.67;;
20283;SDS011;10301;50.832;4.080;2023-02-28T06:37:03;17.33;;;10.23;;
20283;SDS011;10301;50.832;4.080;2023-02-28T06:39:30;18.67;;;10.57;;
20283;SDS011;10301;50.832;4.080;2023-02-28T06:41:56;17.60;;;11.03;;
20283;SDS011;10301;50.832;4.080;2023-02-28T06:44:22;15.87;;;10.00;;
20283;SDS011;10301;50.832;4.080;2023-02-28T06:46:48;21.53;;;10.97;;
20283;SDS011;10301;50.832;4.080;2023-02-28T06:49:14;19.90;;;11.20;;
20283;SDS011;10301;50.832;4.080;2023-02-28T06:51:42;20.07;;;11.30;;
20283;SDS011;10301;50.832;4.080;2023-02-28T06:54:12;20.80;;;10.93;;
20283;SDS011;10301;50.832;4.080;2023-02-28T06:56:38;21.30;;;10.93;;
20283;SDS011;10301;50.832;4.080;2023-02-28T06:59:04;16.53;;;9.53;;
20283;SDS011;10301;50.832;4.080;2023-02-28T07:01:30;17.70;;;10.50;;
20283;SDS011;10301;50.832;4.080;2023-02-28T07:03:57;16.20;;;9.30;;
20283;SDS011;10301;50.832;4.080;2023-02-28T07:06:25;23.53;;;9.57;;
20283;SDS011;10301;50.832;4.080;2023-02-28T07:08:51;21.40;;;11.17;;
20283;SDS011;10301;50.832;4.080;2023-02-28T07:11:18;18.73;;;11.17;;
20283;SDS011;10301;50.832;4.080;2023-02-28T07:13:47;17.30;;;9.87;;
20283;SDS011;10301;50.832;4.080;2023-02-28T07:16:13;19.47;;;9.93;;
20283;SDS011;10301;50.832;4.080;2023-02-28T07:18:39;15.03;;;10.07;;
20283;SDS011;10301;50.832;4.080;2023-02-28T07:21:06;17.83;;;10.40;;
20283;SDS011;10301;50.832;4.080;2023-02-28T07:23:33;16.80;;;9.87;;
20283;SDS011;10301;50.832;4.080;2023-02-28T07:25:59;16.07;;;10.47;;
20283;SDS011;10301;50.832;4.080;2023-02-28T07:28:25;20.33;;;10.00;;
20283;SDS011;10301;50.832;4.080;2023-02-28T07:30:51;16.70;;;9.37;;
20283;SDS011;10301;50.832;4.080;2023-02-28T07:33:17;18.00;;;9.77;;
20283;SDS011;10301;50.832;4.080;2023-02-28T07:35:43;15.57;;;9.10;;
20283;SDS011;10301;50.832;4.080;2023-02-28T07:38:09;15.63;;;8.83;;
20283;SDS011;10301;50.832;4.080;2023-02-28T07:40:35;18.53;;;9.90;;
20283;SDS011;10301;50.832;4.080;2023-02-28T07:43:01;18.13;;;9.97;;
20283;SDS011;10301;50.832;4.080;2023-02-28T07:45:28;14.53;;;9.00;;
20283;SDS011;10301;50.832;4.080;2023-02-28T07:47:54;13.97;;;9.27;;
20283;SDS011;10301;50.832;4.080;2023-02-28T07:50:21;13.97;;;8.77;;
20283;SDS011;10301;50.832;4.080;2023-02-28T07:52:46;15.90;;;8.47;;
20283;SDS011;10301;50.832;4.080;2023-02-28T07:55:12;13.17;;;8.33;;
20283;SDS011;10301;50.832;4.080;2023-02-28T07:57:39;16.00;;;8.47;;
20283;SDS011;10301;50.832;4.080;2023-02-28T08:00:06;14.20;;;8.40;;
20283;SDS011;10301;50.832;4.080;2023-02-28T08:02:37;19.00;;;9.40;;
20283;SDS011;10301;50.832;4.080;2023-02-28T08:05:03;14.03;;;8.70;;
20283;SDS011;10301;50.832;4.080;2023-02-28T08:07:30;14.03;;;8.27;;
20283;SDS011;10301;50.832;4.080;2023-02-28T08:09:55;15.03;;;8.20;;
20283;SDS011;10301;50.832;4.080;2023-02-28T08:12:21;12.37;;;7.67;;
20283;SDS011;10301;50.832;4.080;2023-02-28T08:14:47;11.40;;;7.50;;
20283;SDS011;10301;50.832;4.080;2023-02-28T08:17:12;14.47;;;8.03;;
20283;SDS011;10301;50.832;4.080;2023-02-28T08:19:38;10.97;;;7.10;;
20283;SDS011;10301;50.832;4.080;2023-02-28T08:22:04;14.60;;;7.37;;
20283;SDS011;10301;50.832;4.080;2023-02-28T08:24:29;13.80;;;7.30;;
20283;SDS011;10301;50.832;4.080;2023-02-28T08:26:55;10.63;;;6.50;;
20283;SDS011;10301;50.832;4.080;2023-02-28T08:29:21;14.60;;;6.93;;
20283;SDS011;10301;50.832;4.080;2023-02-28T08:31:47;10.73;;;6.67;;
20283;SDS011;10301;50.832;4.080;2023-02-28T08:34:13;12.90;;;6.47;;
20283;SDS011;10301;50.832;4.080;2023-02-28T08:36:40;12.33;;;7.57;;
20283;SDS011;10301;50.832;4.080;2023-02-28T08:39:08;10.03;;;5.53;;
20283;SDS011;10301;50.832;4.080;2023-02-28T08:41:34;9.63;;;5.27;;
20283;SDS011;10301;50.832;4.080;2023-02-28T08:43:59;9.43;;;4.83;;
20283;SDS011;10301;50.832;4.080;2023-02-28T08:46:25;10.83;;;5.20;;
20283;SDS011;10301;50.832;4.080;2023-02-28T08:48:55;7.40;;;4.57;;
20283;SDS011;10301;50.832;4.080;2023-02-28T08:51:25;10.07;;;5.97;;
20283;SDS011;10301;50.832;4.080;2023-02-28T08:53:52;10.00;;;5.43;;
20283;SDS011;10301;50.832;4.080;2023-02-28T08:56:18;8.63;;;4.50;;
20283;SDS011;10301;50.832;4.080;2023-02-28T08:58:45;8.70;;;4.33;;
20283;SDS011;10301;50.832;4.080;2023-02-28T09:03:40;9.33;;;4.63;;
20283;SDS011;10301;50.832;4.080;2023-02-28T09:06:07;16.37;;;7.70;;
20283;SDS011;10301;50.832;4.080;2023-02-28T09:08:33;6.17;;;3.10;;
20283;SDS011;10301;50.832;4.080;2023-02-28T09:10:59;8.13;;;4.37;;
20283;SDS011;10301;50.832;4.080;2023-02-28T09:13:27;7.50;;;3.20;;
20283;SDS011;10301;50.832;4.080;2023-02-28T09:15:53;7.33;;;3.10;;
20283;SDS011;10301;50.832;4.080;2023-02-28T09:18:19;5.70;;;2.80;;
20283;SDS011;10301;50.832;4.080;2023-02-28T09:20:45;8.60;;;3.43;;
20283;SDS011;10301;50.832;4.080;2023-02-28T09:23:11;10.83;;;3.53;;
20283;SDS011;10301;50.832;4.080;2023-02-28T09:25:40;8.07;;;3.50;;
20283;SDS011;10301;50.832;4.080;2023-02-28T09:28:13;6.57;;;3.43;;
20283;SDS011;10301;50.832;4.080;2023-02-28T09:30:43;5.60;;;3.13;;
20283;SDS011;10301;50.832;4.080;2023-02-28T09:33:10;5.73;;;3.20;;
20283;SDS011;10301;50.832;4.080;2023-02-28T09:35:36;5.80;;;3.30;;
20283;SDS011;10301;50.832;4.080;2023-02-28T09:38:02;5.00;;;2.50;;
20283;SDS011;10301;50.832;4.080;2023-02-28T09:40:28;6.20;;;2.30;;
20283;SDS011;10301;50.832;4.080;2023-02-28T09:42:55;6.13;;;2.60;;
20283;SDS011;10301;50.832;4.080;2023-02-28T09:45:28;5.63;;;2.53;;
20283;SDS011;10301;50.832;4.080;2023-02-28T09:48:20;4.73;;;2.50;;
20283;SDS011;10301;50.832;4.080;2023-02-28T09:50:50;4.83;;;2.40;;
20283;SDS011;10301;50.832;4.080;2023-02-28T09:55:44;6.27;;;2.80;;
20283;SDS011;10301;50.832;4.080;2023-02-28T09:58:37;6.30;;;2.73;;
20283;SDS011;10301;50.832;4.080;2023-02-28T10:01:10;5.63;;;3.10;;
20283;SDS011;10301;50.832;4.080;2023-02-28T10:06:50;6.63;;;2.90;;
20283;SDS011;10301;50.832;4.080;2023-02-28T10:11:50;5.50;;;2.80;;
20283;SDS011;10301;50.832;4.080;2023-02-28T10:14:26;5.30;;;2.93;;
20283;SDS011;10301;50.832;4.080;2023-02-28T10:16:55;6.13;;;3.07;;
20283;SDS011;10301;50.832;4.080;2023-02-28T10:21:55;4.67;;;2.60;;
20283;SDS011;10301;50.832;4.080;2023-02-28T10:24:30;4.00;;;2.27;;
20283;SDS011;10301;50.832;4.080;2023-02-28T10:27:01;6.07;;;2.53;;
20283;SDS011;10301;50.832;4.080;2023-02-28T10:29:36;6.90;;;2.70;;
20283;SDS011;10301;50.832;4.080;2023-02-28T10:32:03;7.10;;;2.40;;
20283;SDS011;10301;50.832;4.080;2023-02-28T10:34:29;4.87;;;2.20;;
20283;SDS011;10301;50.832;4.080;2023-02-28T10:36:55;5.00;;;2.70;;
20283;SDS011;10301;50.832;4.080;2023-02-28T10:39:44;5.83;;;2.57;;
20283;SDS011;10301;50.832;4.080;2023-02-28T10:42:27;5.13;;;2.67;;
20283;SDS011;10301;50.832;4.080;2023-02-28T10:47:33;7.23;;;3.00;;
20283;SDS011;10301;50.832;4.080;2023-02-28T10:50:01;4.67;;;2.50;;
20283;SDS011;10301;50.832;4.080;2023-02-28T10:52:37;5.10;;;2.73;;
20283;SDS011;10301;50.832;4.080;2023-02-28T10:55:15;5.93;;;2.77;;
20283;SDS011;10301;50.832;4.080;2023-02-28T10:57:44;5.50;;;2.33;;
20283;SDS011;10301;50.832;4.080;2023-02-28T11:00:20;7.60;;;2.70;;
20283;SDS011;10301;50.832;4.080;2023-02-28T11:02:48;8.53;;;2.70;;
20283;SDS011;10301;50.832;4.080;2023-02-28T11:08:11;5.80;;;2.87;;
20283;SDS011;10301;50.832;4.080;2023-02-28T11:10:44;5.17;;;2.83;;
20283;SDS011;10301;50.832;4.080;2023-02-28T11:13:19;4.73;;;2.70;;
20283;SDS011;10301;50.832;4.080;2023-02-28T11:15:51;9.10;;;3.13;;
20283;SDS011;10301;50.832;4.080;2023-02-28T11:23:45;5.77;;;2.63;;
20283;SDS011;10301;50.832;4.080;2023-02-28T11:26:14;5.73;;;2.87;;
20283;SDS011;10301;50.832;4.080;2023-02-28T11:28:41;5.90;;;2.37;;
20283;SDS011;10301;50.832;4.080;2023-02-28T11:36:28;8.03;;;2.47;;
20283;SDS011;10301;50.832;4.080;2023-02-28T11:38:56;6.73;;;2.50;;
20283;SDS011;10301;50.832;4.080;2023-02-28T11:41:49;5.37;;;2.30;;
20283;SDS011;10301;50.832;4.080;2023-02-28T11:47:24;4.73;;;2.30;;
20283;SDS011;10301;50.832;4.080;2023-02-28T11:50:07;4.77;;;2.27;;
20283;SDS011;10301;50.832;4.080;2023-02-28T11:52:40;4.90;;;2.33;;
20283;SDS011;10301;50.832;4.080;2023-02-28T12:00:38;4.87;;;2.07;;
20283;SDS011;10301;50.832;4.080;2023-02-28T12:12:15;7.10;;;3.70;;
20283;SDS011;10301;50.832;4.080;2023-02-28T12:27:55;6.73;;;2.47;;
20283;SDS011;10301;50.832;4.080;2023-02-28T12:30:22;6.10;;;3.00;;
20283;SDS011;10301;50.832;4.080;2023-02-28T12:32:55;5.57;;;2.53;;
20283;SDS011;10301;50.832;4.080;2023-02-28T12:35:34;5.90;;;2.70;;
20283;SDS011;10301;50.832;4.080;2023-02-28T12:43:37;9.07;;;4.10;;
20283;SDS011;10301;50.832;4.080;2023-02-28T12:46:19;6.50;;;2.97;;
20283;SDS011;10301;50.832;4.080;2023-02-28T12:49:51;6.27;;;2.70;;
20283;SDS011;10301;50.832;4.080;2023-02-28T12:52:04;8.50;;;2.83;;
20283;SDS011;10301;50.832;4.080;2023-02-28T12:59:53;5.10;;;2.70;;
20283;SDS011;10301;50.832;4.080;2023-02-28T13:10:52;4.70;;;2.60;;
20283;SDS011;10301;50.832;4.080;2023-02-28T13:13:23;6.57;;;3.20;;
20283;SDS011;10301;50.832;4.080;2023-02-28T13:16:08;8.07;;;3.60;;
20283;SDS011;10301;50.832;4.080;2023-02-28T13:18:45;5.27;;;2.73;;
20283;SDS011;10301;50.832;4.080;2023-02-28T13:21:30;6.70;;;3.70;;
20283;SDS011;10301;50.832;4.080;2023-02-28T13:24:08;8.13;;;4.20;;
20283;SDS011;10301;50.832;4.080;2023-02-28T13:34:31;4.20;;;2.40;;
20283;SDS011;10301;50.832;4.080;2023-02-28T13:47:44;5.10;;;2.30;;
20283;SDS011;10301;50.832;4.080;2023-02-28T13:50:26;5.90;;;2.73;;
20283;SDS011;10301;50.832;4.080;2023-02-28T14:07:26;5.53;;;2.50;;
20283;SDS011;10301;50.832;4.080;2023-02-28T14:10:00;5.13;;;2.67;;
20283;SDS011;10301;50.832;4.080;2023-02-28T14:18:29;5.97;;;3.30;;
20283;SDS011;10301;50.832;4.080;2023-02-28T14:26:41;6.57;;;3.30;;
20283;SDS011;10301;50.832;4.080;2023-02-28T14:34:37;5.13;;;2.93;;
20283;SDS011;10301;50.832;4.080;2023-02-28T14:37:33;5.63;;;3.10;;
20283;SDS011;10301;50.832;4.080;2023-02-28T14:40:04;5.90;;;2.97;;
20283;SDS011;10301;50.832;4.080;2023-02-28T14:42:37;5.63;;;2.70;;
20283;SDS011;10301;50.832;4.080;2023-02-28T14:45:16;7.00;;;3.13;;
20283;SDS011;10301;50.832;4.080;2023-02-28T14:47:44;5.43;;;3.30;;
20283;SDS011;10301;50.832;4.080;2023-02-28T14:50:23;4.33;;;2.83;;
20283;SDS011;10301;50.832;4.080;2023-02-28T14:52:54;7.07;;;3.67;;
20283;SDS011;10301;50.832;4.080;2023-02-28T14:55:25;7.10;;;3.27;;
20283;SDS011;10301;50.832;4.080;2023-02-28T14:57:55;5.10;;;3.10;;
20283;SDS011;10301;50.832;4.080;2023-02-28T15:00:27;8.40;;;3.07;;
20283;SDS011;10301;50.832;4.080;2023-02-28T15:02:57;5.40;;;2.77;;
20283;SDS011;10301;50.832;4.080;2023-02-28T15:08:01;5.77;;;2.90;;
20283;SDS011;10301;50.832;4.080;2023-02-28T15:10:32;5.57;;;3.50;;
20283;SDS011;10301;50.832;4.080;2023-02-28T15:13:04;6.60;;;3.43;;
20283;SDS011;10301;50.832;4.080;2023-02-28T15:21:05;6.20;;;3.57;;
20283;SDS011;10301;50.832;4.080;2023-02-28T15:23:36;6.30;;;3.47;;
20283;SDS011;10301;50.832;4.080;2023-02-28T15:26:02;5.70;;;2.87;;
20283;SDS011;10301;50.832;4.080;2023-02-28T15:28:29;6.07;;;3.40;;
20283;SDS011;10301;50.832;4.080;2023-02-28T15:30:57;5.67;;;3.47;;
20283;SDS011;10301;50.832;4.080;2023-02-28T15:33:25;6.97;;;3.27;;
20283;SDS011;10301;50.832;4.080;2023-02-28T15:36:10;8.27;;;3.63;;
20283;SDS011;10301;50.832;4.080;2023-02-28T15:38:36;7.03;;;3.80;;
20283;SDS011;10301;50.832;4.080;2023-02-28T15:41:02;9.60;;;3.37;;
20283;SDS011;10301;50.832;4.080;2023-02-28T15:43:34;6.63;;;3.53;;
20283;SDS011;10301;50.832;4.080;2023-02-28T15:46:02;6.80;;;3.70;;
20283;SDS011;10301;50.832;4.080;2023-02-28T15:50:57;6.20;;;3.80;;
20283;SDS011;10301;50.832;4.080;2023-02-28T15:53:31;6.30;;;3.50;;
20283;SDS011;10301;50.832;4.080;2023-02-28T15:56:06;5.23;;;3.30;;
20283;SDS011;10301;50.832;4.080;2023-02-28T15:58:44;7.73;;;3.60;;
20283;SDS011;10301;50.832;4.080;2023-02-28T16:01:18;5.67;;;3.30;;
20283;SDS011;10301;50.832;4.080;2023-02-28T16:03:55;5.97;;;3.77;;
20283;SDS011;10301;50.832;4.080;2023-02-28T16:08:51;7.30;;;3.33;;
20283;SDS011;10301;50.832;4.080;2023-02-28T16:11:18;7.03;;;3.63;;
20283;SDS011;10301;50.832;4.080;2023-02-28T16:13:45;10.13;;;3.80;;
20283;SDS011;10301;50.832;4.080;2023-02-28T16:16:15;13.27;;;5.40;;
20283;SDS011;10301;50.832;4.080;2023-02-28T16:18:42;7.77;;;3.60;;
20283;SDS011;10301;50.832;4.080;2023-02-28T16:21:08;8.40;;;4.10;;
20283;SDS011;10301;50.832;4.080;2023-02-28T16:23:34;8.47;;;3.63;;
20283;SDS011;10301;50.832;4.080;2023-02-28T16:25:59;6.77;;;3.17;;
20283;SDS011;10301;50.832;4.080;2023-02-28T16:28:36;9.60;;;4.10;;
20283;SDS011;10301;50.832;4.080;2023-02-28T16:31:04;10.00;;;3.70;;
20283;SDS011;10301;50.832;4.080;2023-02-28T16:33:32;7.23;;;3.43;;
20283;SDS011;10301;50.832;4.080;2023-02-28T16:35:59;6.00;;;3.60;;
20283;SDS011;10301;50.832;4.080;2023-02-28T16:38:28;6.70;;;4.10;;
20283;SDS011;10301;50.832;4.080;2023-02-28T16:40:55;7.93;;;3.87;;
20283;SDS011;10301;50.832;4.080;2023-02-28T16:43:24;5.97;;;3.63;;
20283;SDS011;10301;50.832;4.080;2023-02-28T16:45:55;7.60;;;3.30;;
20283;SDS011;10301;50.832;4.080;2023-02-28T16:48:23;8.13;;;3.70;;
20283;SDS011;10301;50.832;4.080;2023-02-28T16:50:50;6.60;;;3.73;;
20283;SDS011;10301;50.832;4.080;2023-02-28T16:53:16;8.17;;;3.80;;
20283;SDS011;10301;50.832;4.080;2023-02-28T16:55:42;6.10;;;3.40;;
20283;SDS011;10301;50.832;4.080;2023-02-28T16:58:11;7.33;;;3.50;;
20283;SDS011;10301;50.832;4.080;2023-02-28T17:00:40;8.80;;;3.50;;
20283;SDS011;10301;50.832;4.080;2023-02-28T17:03:09;7.03;;;3.43;;
20283;SDS011;10301;50.832;4.080;2023-02-28T17:05:50;7.23;;;3.80;;
20283;SDS011;10301;50.832;4.080;2023-02-28T17:08:16;8.10;;;4.00;;
20283;SDS011;10301;50.832;4.080;2023-02-28T17:10:42;8.67;;;4.00;;
20283;SDS011;10301;50.832;4.080;2023-02-28T17:13:08;5.67;;;3.47;;
20283;SDS011;10301;50.832;4.080;2023-02-28T17:15:34;7.63;;;3.60;;
20283;SDS011;10301;50.832;4.080;2023-02-28T17:18:01;6.23;;;3.80;;
20283;SDS011;10301;50.832;4.080;2023-02-28T17:20:27;7.27;;;3.67;;
20283;SDS011;10301;50.832;4.080;2023-02-28T17:22:54;10.37;;;3.73;;
20283;SDS011;10301;50.832;4.080;2023-02-28T17:25:20;9.30;;;3.83;;
20283;SDS011;10301;50.832;4.080;2023-02-28T17:27:46;7.40;;;3.63;;
20283;SDS011;10301;50.832;4.080;2023-02-28T17:30:20;7.33;;;3.73;;
20283;SDS011;10301;50.832;4.080;2023-02-28T17:32:48;7.00;;;3.70;;
20283;SDS011;10301;50.832;4.080;2023-02-28T17:35:14;7.37;;;3.93;;
20283;SDS011;10301;50.832;4.080;2023-02-28T17:37:41;6.67;;;3.60;;
20283;SDS011;10301;50.832;4.080;2023-02-28T17:40:09;7.97;;;4.13;;
20283;SDS011;10301;50.832;4.080;2023-02-28T17:42:39;6.53;;;3.50;;
20283;SDS011;10301;50.832;4.080;2023-02-28T17:45:05;9.00;;;4.73;;
20283;SDS011;10301;50.832;4.080;2023-02-28T17:47:31;7.47;;;4.93;;
20283;SDS011;10301;50.832;4.080;2023-02-28T17:49:56;7.77;;;5.00;;
20283;SDS011;10301;50.832;4.080;2023-02-28T17:52:22;9.07;;;4.60;;
20283;SDS011;10301;50.832;4.080;2023-02-28T17:54:47;8.33;;;4.90;;
20283;SDS011;10301;50.832;4.080;2023-02-28T17:57:16;9.47;;;5.80;;